Time;durP1;ratioP1;P1;durP2;ratioP2;P2;SDS_P1;SDS_P2;PMS_P1;PMS_P2;Temp;Humidity;BMP_temperature;BMP_pressure;BME280_temperature;BME280_humidity;BME280_pressure;Samples;Min_cycle;Max_cycle;Signal;HPM_P1;HPM_P2
2022/11/20 00:00:56;;;;;;;0.40;0.40;;;;;;;1.00;100.00;100028.63;4996713;28;20030;-84
2022/11/20 00:03:22;;;;;;;0.40;0.40;;;;;;;1.30;100.00;100052.47;5046115;28;20391;-84
2022/11/20 00:05:48;;;;;;;0.40;0.40;;;;;;;1.45;100.00;100065.31;5013098;28;20440;-83
2022/11/20 00:08:14;;;;;;;0.40;0.40;;;;;;;1.58;100.00;100065.09;5016405;28;20120;-84
2022/11/20 00:10:40;;;;;;;0.40;0.40;;;;;;;1.68;100.00;100076.56;4996907;28;20064;-86
2022/11/20 00:13:07;;;;;;;0.50;0.50;;;;;;;1.61;100.00;100063.00;4989063;28;20479;-81
2022/11/20 00:15:33;;;;;;;0.40;0.40;;;;;;;1.55;100.00;100071.50;5022928;28;20025;-80
2022/11/20 00:17:58;;;;;;;0.40;0.40;;;;;;;1.36;100.00;100077.56;5007329;28;20068;-83
2022/11/20 00:20:24;;;;;;;0.50;0.50;;;;;;;1.19;100.00;100089.63;5022401;28;20236;-85
2022/11/20 00:22:50;;;;;;;0.40;0.40;;;;;;;0.93;100.00;100085.69;5070317;28;20456;-85
2022/11/20 00:25:16;;;;;;;0.40;0.40;;;;;;;0.83;100.00;100085.66;5011682;28;20067;-80
2022/11/20 00:27:42;;;;;;;0.40;0.40;;;;;;;0.72;100.00;100089.22;5041338;28;20116;-82
2022/11/20 00:30:08;;;;;;;0.47;0.47;;;;;;;0.72;100.00;100083.94;4992238;28;20130;-82
2022/11/20 00:32:33;;;;;;;0.40;0.40;;;;;;;0.73;100.00;100082.94;4997491;28;20057;-81
2022/11/20 00:34:59;;;;;;;0.40;0.40;;;;;;;0.73;100.00;100092.69;5008999;28;20468;-82
2022/11/20 00:37:25;;;;;;;0.50;0.50;;;;;;;0.67;100.00;100093.22;5000558;28;20498;-81
2022/11/20 00:39:51;;;;;;;0.40;0.40;;;;;;;0.54;100.00;100096.88;4998635;28;20036;-83
2022/11/20 00:42:16;;;;;;;0.47;0.47;;;;;;;0.44;100.00;100090.66;5010637;28;20033;-81
2022/11/20 00:44:42;;;;;;;0.43;0.43;;;;;;;0.39;100.00;100096.31;4997880;28;20156;-82
2022/11/20 00:47:08;;;;;;;0.45;0.45;;;;;;;0.40;100.00;100094.56;5022514;28;20037;-82
2022/11/20 00:49:34;;;;;;;0.40;0.40;;;;;;;0.37;100.00;100084.19;4998777;28;20390;-82
2022/11/20 00:52:00;;;;;;;0.50;0.50;;;;;;;0.24;100.00;100054.44;5010236;28;20501;-81
2022/11/20 00:54:25;;;;;;;0.40;0.40;;;;;;;0.82;100.00;100086.63;5009250;28;20045;-82
2022/11/20 00:56:53;;;;;;;0.40;0.40;;;;;;;1.45;100.00;100094.47;5033393;28;20511;-81
2022/11/20 00:59:18;;;;;;;0.40;0.40;;;;;;;2.30;100.00;100125.81;5014285;28;20472;-81
2022/11/20 01:01:44;;;;;;;0.50;0.50;;;;;;;2.90;100.00;100106.22;4996784;28;20040;-80
2022/11/20 01:04:10;;;;;;;0.40;0.40;;;;;;;3.56;100.00;100122.13;5011533;28;20029;-81
2022/11/20 01:06:37;;;;;;;0.50;0.50;;;;;;;4.14;100.00;100116.50;5024735;28;20033;-80
2022/11/20 01:09:09;;;;;;;0.50;0.50;;;;;;;4.49;100.00;100114.00;5032623;28;20033;-79
2022/11/20 01:11:39;;;;;;;0.40;0.40;;;;;;;4.64;100.00;100104.50;5021749;28;20116;-79
2022/11/20 01:14:07;;;;;;;0.40;0.40;;;;;;;4.81;100.00;100090.31;5012133;28;20040;-79
2022/11/20 01:16:52;;;;;;;0.40;0.40;;;;;;;4.92;100.00;100093.72;5018611;28;20044;-80
2022/11/20 01:19:20;;;;;;;0.40;0.40;;;;;;;5.03;100.00;100112.97;5015478;28;20029;-82
2022/11/20 01:21:48;;;;;;;0.40;0.40;;;;;;;5.18;100.00;100121.22;5008563;28;20029;-79
2022/11/20 01:24:16;;;;;;;0.63;0.52;;;;;;;5.17;100.00;100100.91;5008039;28;20033;-82
2022/11/20 01:26:42;;;;;;;0.40;0.40;;;;;;;5.26;100.00;100107.09;5008039;28;20022;-82
2022/11/20 01:29:17;;;;;;;0.40;0.40;;;;;;;5.27;100.00;100101.63;4991234;28;20032;-82
2022/11/20 01:31:43;;;;;;;0.40;0.40;;;;;;;5.26;100.00;100080.44;5015603;28;20029;-81
2022/11/20 01:34:12;;;;;;;0.40;0.40;;;;;;;5.23;100.00;100080.78;5045927;28;20429;-82
2022/11/20 01:36:39;;;;;;;0.40;0.40;;;;;;;5.16;100.00;100082.38;5023492;28;20041;-80
2022/11/20 01:39:13;;;;;;;0.40;0.40;;;;;;;5.25;100.00;100086.78;5016047;28;20059;-81
2022/11/20 01:44:47;;;;;;;0.50;0.50;;;;;;;5.25;100.00;100098.28;5032154;28;20052;-81
2022/11/20 01:47:14;;;;;;;0.40;0.40;;;;;;;5.04;100.00;100098.63;5028105;28;20041;-83
2022/11/20 01:49:48;;;;;;;0.40;0.40;;;;;;;4.85;100.00;100097.00;5062237;28;20026;-82
2022/11/20 01:52:18;;;;;;;0.40;0.40;;;;;;;4.83;100.00;100112.31;4999162;28;20037;-84
2022/11/20 01:54:50;;;;;;;0.40;0.40;;;;;;;4.90;100.00;100119.69;5023568;28;20116;-83
2022/11/20 01:57:17;;;;;;;0.50;0.50;;;;;;;4.93;100.00;100128.22;5031267;28;20025;-84
2022/11/20 01:59:52;;;;;;;2.67;0.93;;;;;;;5.14;100.00;100132.38;5012222;28;20095;-84
2022/11/20 02:02:18;;;;;;;0.40;0.40;;;;;;;5.27;100.00;100130.94;5031274;28;20034;-85
2022/11/20 02:04:44;;;;;;;0.40;0.40;;;;;;;5.04;100.00;100114.63;4998940;28;20422;-82
2022/11/20 02:07:10;;;;;;;0.40;0.40;;;;;;;4.64;100.00;100107.16;5014224;28;20294;-81
2022/11/20 02:09:36;;;;;;;0.40;0.40;;;;;;;4.41;100.00;100109.44;5014731;28;20041;-88
2022/11/20 02:12:03;;;;;;;0.40;0.40;;;;;;;4.18;100.00;100117.03;5025132;28;20026;-82
2022/11/20 02:14:29;;;;;;;0.40;0.40;;;;;;;3.89;100.00;100110.09;4995348;28;20038;-82
2022/11/20 02:16:54;;;;;;;0.40;0.40;;;;;;;3.53;100.00;100096.66;5010022;28;20091;-83
2022/11/20 02:19:28;;;;;;;0.40;0.40;;;;;;;3.44;100.00;100108.19;5013098;28;20378;-86
2022/11/20 02:22:00;;;;;;;0.40;0.40;;;;;;;3.19;100.00;100100.84;5026613;28;20235;-83
2022/11/20 02:24:26;;;;;;;0.40;0.40;;;;;;;3.05;100.00;100110.97;5028352;28;20036;-83
2022/11/20 02:26:52;;;;;;;0.40;0.40;;;;;;;2.86;100.00;100106.53;4998453;28;20026;-81
2022/11/20 02:29:24;;;;;;;0.40;0.40;;;;;;;2.55;100.00;100065.22;5027392;28;20021;-83
2022/11/20 02:31:50;;;;;;;0.40;0.40;;;;;;;2.49;100.00;100087.84;4998359;28;20034;-82
2022/11/20 02:34:15;;;;;;;0.50;0.50;;;;;;;2.51;100.00;100096.47;5014363;28;20352;-81
2022/11/20 02:36:42;;;;;;;0.40;0.40;;;;;;;2.39;100.00;100097.63;5047637;28;20112;-85
2022/11/20 02:39:09;;;;;;;0.50;0.50;;;;;;;2.36;100.00;100101.38;5047755;28;20037;-83
2022/11/20 02:41:36;;;;;;;0.40;0.40;;;;;;;2.36;100.00;100092.59;5014568;28;20042;-85
2022/11/20 02:44:03;;;;;;;0.40;0.40;;;;;;;2.58;100.00;100102.06;4998168;28;20116;-83
2022/11/20 02:46:29;;;;;;;0.40;0.40;;;;;;;2.71;100.00;100085.88;5022564;28;20092;-82
2022/11/20 02:48:55;;;;;;;0.40;0.40;;;;;;;2.83;100.00;100079.41;5014452;28;20026;-83
2022/11/20 02:51:21;;;;;;;0.50;0.50;;;;;;;3.00;100.00;100081.34;5021911;28;20048;-81
2022/11/20 02:53:46;;;;;;;0.40;0.40;;;;;;;3.26;100.00;100091.34;4993839;28;20395;-82
2022/11/20 02:56:12;;;;;;;0.40;0.40;;;;;;;3.29;100.00;100086.56;5026324;28;20030;-83
2022/11/20 02:58:37;;;;;;;0.40;0.40;;;;;;;3.30;100.00;100103.31;5022879;28;20022;-86
2022/11/20 03:01:03;;;;;;;0.40;0.40;;;;;;;3.06;100.00;100093.19;4992129;28;20040;-81
2022/11/20 03:03:29;;;;;;;0.40;0.40;;;;;;;2.91;100.00;100087.50;5014163;28;20060;-82
2022/11/20 03:05:54;;;;;;;0.50;0.50;;;;;;;2.92;100.00;100114.91;5013762;28;20029;-82
2022/11/20 03:08:20;;;;;;;0.40;0.40;;;;;;;2.79;100.00;100118.69;4986808;28;20036;-83
2022/11/20 03:10:46;;;;;;;0.50;0.50;;;;;;;2.61;100.00;100118.53;5021978;28;20040;-83
2022/11/20 03:13:11;;;;;;;0.50;0.50;;;;;;;2.60;100.00;100105.44;5021621;28;20464;-83
2022/11/20 03:15:37;;;;;;;0.40;0.40;;;;;;;2.69;100.00;100093.13;5055534;28;20534;-82
2022/11/20 03:18:03;;;;;;;0.40;0.40;;;;;;;2.92;100.00;100106.94;5031350;28;20026;-83
2022/11/20 03:20:29;;;;;;;0.40;0.40;;;;;;;3.10;100.00;100115.84;5006406;28;20034;-82
2022/11/20 03:22:54;;;;;;;0.40;0.40;;;;;;;3.29;100.00;100122.91;5013710;28;20041;-85
2022/11/20 03:25:21;;;;;;;0.40;0.40;;;;;;;3.45;100.00;100123.16;5029646;28;20033;-81
2022/11/20 03:27:47;;;;;;;0.40;0.40;;;;;;;3.75;100.00;100126.50;4990025;28;20061;-84
2022/11/20 03:30:13;;;;;;;0.40;0.40;;;;;;;4.14;100.00;100132.47;4990768;28;20084;-80
2022/11/20 03:32:39;;;;;;;0.40;0.40;;;;;;;4.35;100.00;100124.19;5010544;28;20025;-80
2022/11/20 03:35:05;;;;;;;0.40;0.40;;;;;;;4.50;100.00;100132.50;5013174;28;20476;-80
2022/11/20 03:37:31;;;;;;;0.40;0.40;;;;;;;4.55;100.00;100106.25;5011636;28;20381;-82
2022/11/20 03:39:57;;;;;;;0.40;0.40;;;;;;;4.56;100.00;100113.25;4992541;28;20064;-83
2022/11/20 03:45:07;;;;;;;0.40;0.40;;;;;;;4.53;100.00;100086.09;5027811;28;20029;-80
2022/11/20 03:47:33;;;;;;;0.40;0.40;;;;;;;4.45;100.00;100068.22;5011657;28;20103;-81
2022/11/20 03:49:58;;;;;;;0.40;0.40;;;;;;;4.68;100.00;100091.69;4994652;28;20491;-81
2022/11/20 03:52:24;;;;;;;0.50;0.50;;;;;;;4.68;100.00;100081.88;5006851;28;20083;-81
2022/11/20 03:54:50;;;;;;;0.40;0.40;;;;;;;4.66;100.00;100070.56;4997874;28;20033;-81
2022/11/20 03:57:15;;;;;;;0.40;0.40;;;;;;;4.62;100.00;100080.69;5047276;28;20025;-80
2022/11/20 03:59:41;;;;;;;0.40;0.40;;;;;;;4.42;100.00;100068.53;5029993;28;20035;-80
2022/11/20 04:02:06;;;;;;;0.40;0.40;;;;;;;4.34;100.00;100065.78;5025037;28;20034;-80
2022/11/20 04:04:32;;;;;;;0.50;0.50;;;;;;;4.29;100.00;100079.56;5006056;28;20034;-80
2022/11/20 04:06:58;;;;;;;0.40;0.40;;;;;;;4.14;100.00;100065.94;4997012;28;20117;-83
2022/11/20 04:09:23;;;;;;;0.40;0.40;;;;;;;4.15;100.00;100056.13;5008101;28;20052;-80
2022/11/20 04:11:49;;;;;;;0.40;0.40;;;;;;;4.09;100.00;100060.22;4993045;28;20061;-81
2022/11/20 04:14:16;;;;;;;0.40;0.40;;;;;;;3.88;100.00;100023.28;5026678;28;20037;-81
2022/11/20 04:16:42;;;;;;;0.40;0.40;;;;;;;4.16;100.00;100049.84;5018595;28;20117;-84
2022/11/20 04:19:13;;;;;;;0.40;0.40;;;;;;;4.17;100.00;100035.53;4995982;28;20057;-82
2022/11/20 04:21:38;;;;;;;0.50;0.50;;;;;;;4.34;100.00;100058.66;5026800;28;20075;-84
2022/11/20 04:24:04;;;;;;;0.40;0.40;;;;;;;4.34;100.00;100063.13;5019259;28;20022;-81
2022/11/20 04:26:30;;;;;;;0.40;0.40;;;;;;;4.35;100.00;100062.97;5026436;28;20368;-82
2022/11/20 04:28:57;;;;;;;0.40;0.40;;;;;;;4.33;100.00;100064.13;5017205;28;20032;-83
2022/11/20 04:31:25;;;;;;;0.40;0.40;;;;;;;4.19;100.00;100052.19;5000165;28;20029;-82
2022/11/20 04:33:51;;;;;;;0.40;0.40;;;;;;;4.19;100.00;100062.84;5000887;28;20053;-83
2022/11/20 04:36:25;;;;;;;0.40;0.40;;;;;;;4.06;100.00;100052.56;5033297;28;20087;-83
2022/11/20 04:38:55;;;;;;;0.40;0.40;;;;;;;3.97;100.00;100053.47;4992857;28;20095;-82
2022/11/20 04:41:23;;;;;;;0.50;0.50;;;;;;;4.02;100.00;100047.69;5003940;28;20497;-81
2022/11/20 04:43:50;;;;;;;0.50;0.50;;;;;;;4.10;100.00;100048.63;4993620;28;20383;-83
2022/11/20 04:46:17;;;;;;;0.40;0.40;;;;;;;4.21;100.00;100036.06;5017194;28;20095;-84
2022/11/20 04:48:42;;;;;;;0.40;0.40;;;;;;;4.26;100.00;100020.47;5002863;28;20026;-82
2022/11/20 04:51:08;;;;;;;0.40;0.40;;;;;;;4.56;100.00;100048.53;5016836;28;20033;-82
2022/11/20 04:53:34;;;;;;;0.40;0.40;;;;;;;4.61;100.00;100049.72;5030548;28;20029;-85
2022/11/20 04:56:01;;;;;;;0.45;0.45;;;;;;;4.49;100.00;100039.47;5011114;28;20033;-82
2022/11/20 04:58:26;;;;;;;0.40;0.40;;;;;;;4.37;100.00;100041.53;5023824;28;20068;-84
2022/11/20 05:00:52;;;;;;;0.40;0.40;;;;;;;4.20;100.00;100051.19;5012359;28;20061;-84
2022/11/20 05:03:18;;;;;;;0.50;0.50;;;;;;;4.09;100.00;100046.09;5031873;28;20491;-84
2022/11/20 05:05:43;;;;;;;0.40;0.40;;;;;;;3.95;100.00;100028.84;5009535;28;20056;-83
2022/11/20 05:08:09;;;;;;;0.40;0.40;;;;;;;4.10;100.00;100035.31;5032977;28;20491;-83
2022/11/20 05:10:35;;;;;;;0.40;0.40;;;;;;;4.27;100.00;100030.97;5009684;28;20067;-83
2022/11/20 05:13:00;;;;;;;0.40;0.40;;;;;;;4.51;100.00;100042.81;5013410;28;20053;-85
2022/11/20 05:15:26;;;;;;;0.40;0.40;;;;;;;4.41;100.00;100001.13;4999683;28;20059;-83
2022/11/20 05:17:52;;;;;;;0.40;0.40;;;;;;;4.62;100.00;99991.97;5024575;28;20041;-83
2022/11/20 05:20:18;;;;;;;0.40;0.40;;;;;;;4.80;100.00;99966.13;5015944;28;20533;-84
2022/11/20 05:22:44;;;;;;;0.40;0.40;;;;;;;5.01;100.00;99972.91;5032298;28;20550;-83
2022/11/20 05:25:11;;;;;;;0.50;0.50;;;;;;;5.15;100.00;99958.13;4992015;28;20121;-83
2022/11/20 05:27:37;;;;;;;0.40;0.40;;;;;;;5.47;100.00;99992.06;5031183;28;20022;-83
2022/11/20 05:30:04;;;;;;;0.40;0.40;;;;;;;5.59;100.00;99985.44;5026099;28;20026;-84
2022/11/20 05:32:30;;;;;;;0.40;0.40;;;;;;;5.73;100.00;99959.97;5022512;28;20506;-83
2022/11/20 05:34:56;;;;;;;0.40;0.40;;;;;;;5.87;100.00;99951.31;5026501;28;20029;-84
2022/11/20 05:37:21;;;;;;;0.40;0.40;;;;;;;6.04;100.00;99967.38;4995852;28;20491;-85
2022/11/20 05:39:47;;;;;;;0.40;0.40;;;;;;;6.03;100.00;100000.41;5028008;28;20053;-84
2022/11/20 05:42:31;;;;;;;0.50;0.50;;;;;;;5.99;100.00;100004.41;5018185;28;20041;-83
2022/11/20 05:45:00;;;;;;;0.40;0.40;;;;;;;6.03;100.00;100003.91;5032139;28;20025;-83
2022/11/20 05:47:27;;;;;;;0.50;0.50;;;;;;;6.02;100.00;99996.91;4990415;28;20120;-83
2022/11/20 05:49:53;;;;;;;1.52;0.60;;;;;;;6.01;100.00;99989.91;5015659;28;20506;-83
2022/11/20 05:52:18;;;;;;;0.50;0.50;;;;;;;6.05;100.00;99990.41;5015495;28;20033;-84
2022/11/20 05:54:44;;;;;;;0.45;0.45;;;;;;;5.99;100.00;99991.06;4991597;28;20476;-84
2022/11/20 05:57:10;;;;;;;0.52;0.52;;;;;;;5.83;100.00;99967.84;5008801;28;20488;-83
2022/11/20 05:59:35;;;;;;;0.40;0.40;;;;;;;5.80;100.00;99995.66;5007694;28;20021;-83
2022/11/20 06:02:01;;;;;;;0.40;0.40;;;;;;;5.69;100.00;100004.00;5032392;28;20383;-83
2022/11/20 06:04:27;;;;;;;0.40;0.40;;;;;;;5.62;100.00;100006.47;5022959;28;20064;-84
2022/11/20 06:06:52;;;;;;;0.40;0.40;;;;;;;5.54;100.00;99997.59;5028966;28;20136;-85
2022/11/20 06:09:18;;;;;;;0.40;0.40;;;;;;;5.36;100.00;99989.69;5024450;28;20053;-83
2022/11/20 06:11:43;;;;;;;0.40;0.40;;;;;;;5.43;100.00;100004.91;5011911;28;20391;-85
2022/11/20 06:14:09;;;;;;;0.40;0.40;;;;;;;5.42;100.00;100015.72;5026648;28;20027;-84
2022/11/20 06:16:34;;;;;;;0.40;0.40;;;;;;;5.35;100.00;100007.53;5039744;28;20033;-86
2022/11/20 06:19:00;;;;;;;0.40;0.40;;;;;;;5.25;100.00;99993.50;5031113;28;20034;-83
2022/11/20 06:21:26;;;;;;;0.40;0.40;;;;;;;5.37;100.00;100013.56;5014596;28;20116;-84
2022/11/20 06:23:52;;;;;;;0.40;0.40;;;;;;;5.40;100.00;100028.34;5031017;28;20387;-84
2022/11/20 06:26:20;;;;;;;0.40;0.40;;;;;;;5.43;100.00;100031.56;5015236;28;20068;-84
2022/11/20 06:28:46;;;;;;;0.40;0.40;;;;;;;5.48;100.00;100023.91;5031552;28;20059;-84
2022/11/20 06:31:14;;;;;;;0.43;0.43;;;;;;;5.38;100.00;100009.88;5047572;28;20057;-86
2022/11/20 06:33:40;;;;;;;0.45;0.45;;;;;;;5.61;100.00;100047.47;5013928;28;20108;-85
2022/11/20 06:36:06;;;;;;;0.40;0.40;;;;;;;5.69;100.00;100060.84;5012531;28;20033;-85
2022/11/20 06:38:32;;;;;;;0.40;0.40;;;;;;;5.77;100.00;100049.34;5013904;28;20056;-84
2022/11/20 06:40:58;;;;;;;0.40;0.40;;;;;;;5.74;100.00;100052.31;5051334;28;20040;-84
2022/11/20 06:43:24;;;;;;;0.40;0.40;;;;;;;5.67;100.00;100043.31;5008254;28;20037;-83
2022/11/20 06:45:53;;;;;;;0.40;0.40;;;;;;;5.62;100.00;100038.47;5001051;28;20472;-85
2022/11/20 06:48:20;;;;;;;0.70;0.70;;;;;;;5.53;100.00;100035.91;5028635;28;20037;-83
2022/11/20 06:50:45;;;;;;;0.40;0.40;;;;;;;5.55;100.00;100029.44;5011729;28;20072;-83
2022/11/20 06:53:11;;;;;;;0.40;0.40;;;;;;;5.70;100.00;100048.31;5027708;28;20148;-84
2022/11/20 06:55:36;;;;;;;0.50;0.50;;;;;;;5.71;100.00;100034.81;5030845;28;20034;-84
2022/11/20 06:58:02;;;;;;;0.50;0.50;;;;;;;5.69;100.00;100028.81;5014859;28;20033;-84
2022/11/20 07:00:27;;;;;;;0.40;0.40;;;;;;;5.60;100.00;100024.44;5029758;28;20063;-82
2022/11/20 07:02:53;;;;;;;0.40;0.40;;;;;;;5.50;100.00;100029.06;5027233;28;20403;-81
2022/11/20 07:05:19;;;;;;;0.40;0.40;;;;;;;5.39;100.00;100022.19;5022824;28;20152;-82
2022/11/20 07:07:45;;;;;;;0.40;0.40;;;;;;;5.27;100.00;100011.00;5030709;28;20044;-83
2022/11/20 07:10:10;;;;;;;0.40;0.40;;;;;;;5.33;100.00;100016.69;5047836;28;20022;-84
2022/11/20 07:12:36;;;;;;;0.40;0.40;;;;;;;5.36;100.00;100027.03;5024622;28;20035;-82
2022/11/20 07:15:02;;;;;;;0.40;0.40;;;;;;;5.33;100.00;100030.00;5019597;28;20033;-83
2022/11/20 07:17:28;;;;;;;0.40;0.40;;;;;;;5.29;100.00;100014.34;5030474;28;20056;-83
2022/11/20 07:19:53;;;;;;;0.32;0.32;;;;;;;5.40;100.00;100029.22;5014473;28;20482;-82
2022/11/20 07:22:21;;;;;;;0.45;0.45;;;;;;;5.40;100.00;100033.69;4998280;28;20068;-84
2022/11/20 07:24:48;;;;;;;0.40;0.40;;;;;;;5.40;100.00;100025.69;5028304;28;20213;-81
2022/11/20 07:27:13;;;;;;;0.40;0.40;;;;;;;5.44;100.00;100040.38;5011029;28;20103;-82
2022/11/20 07:29:39;;;;;;;0.57;0.57;;;;;;;5.46;100.00;100046.41;5028175;28;20061;-80
2022/11/20 07:32:05;;;;;;;0.40;0.40;;;;;;;5.44;100.00;100054.56;5014724;28;20044;-81
2022/11/20 07:34:30;;;;;;;0.40;0.40;;;;;;;5.48;100.00;100063.91;5029050;28;20506;-79
2022/11/20 07:36:56;;;;;;;0.30;0.30;;;;;;;5.49;100.00;100068.25;5013905;28;20025;-79
2022/11/20 07:39:21;;;;;;;0.50;0.50;;;;;;;5.48;100.00;100055.09;5038872;28;20040;-82
2022/11/20 07:41:47;;;;;;;0.40;0.40;;;;;;;5.49;100.00;100054.06;5033730;28;20049;-80
2022/11/20 07:44:13;;;;;;;1.15;0.60;;;;;;;5.51;100.00;100062.75;5023427;28;20064;-80
2022/11/20 07:46:38;;;;;;;0.77;0.60;;;;;;;5.41;100.00;100064.72;5008085;28;20037;-80
2022/11/20 07:49:04;;;;;;;0.40;0.40;;;;;;;5.33;100.00;100070.84;5031052;28;20030;-81
2022/11/20 07:51:29;;;;;;;0.47;0.47;;;;;;;5.13;100.00;100042.72;4988765;28;20069;-80
2022/11/20 07:53:55;;;;;;;0.40;0.40;;;;;;;5.16;100.00;100056.59;4991959;28;20458;-80
2022/11/20 07:56:21;;;;;;;0.40;0.40;;;;;;;5.08;100.00;100053.88;5026767;28;20025;-79
2022/11/20 07:58:46;;;;;;;0.50;0.50;;;;;;;5.11;100.00;100074.03;5027411;28;20037;-80
2022/11/20 08:01:12;;;;;;;0.40;0.40;;;;;;;5.16;100.00;100087.72;5013400;28;20443;-80
2022/11/20 08:03:37;;;;;;;0.40;0.40;;;;;;;5.13;100.00;100086.19;5031179;28;20029;-80
2022/11/20 08:06:04;;;;;;;0.40;0.40;;;;;;;5.12;100.00;100086.38;4992311;28;20029;-80
2022/11/20 08:08:30;;;;;;;0.40;0.40;;;;;;;5.10;100.00;100083.84;5032100;28;20072;-80
2022/11/20 08:16:27;;;;;;;0.50;0.50;;;;;;;4.94;100.00;100073.91;5015772;28;20037;-82
2022/11/20 08:18:53;;;;;;;0.40;0.40;;;;;;;4.83;100.00;100068.84;5012223;28;20033;-81
2022/11/20 08:21:19;;;;;;;0.47;0.47;;;;;;;4.80;100.00;100070.00;5006351;28;20034;-82
2022/11/20 08:23:44;;;;;;;0.40;0.40;;;;;;;4.73;100.00;100071.59;5033375;28;20083;-81
2022/11/20 08:26:10;;;;;;;0.40;0.40;;;;;;;4.81;100.00;100095.63;5049480;28;20383;-81
2022/11/20 08:28:36;;;;;;;0.50;0.50;;;;;;;4.78;100.00;100081.81;5008410;28;20112;-80
2022/11/20 08:31:03;;;;;;;0.40;0.40;;;;;;;4.70;100.00;100063.09;5026931;28;20510;-81
2022/11/20 08:33:29;;;;;;;0.40;0.40;;;;;;;4.76;100.00;100068.66;5008310;28;20460;-81
2022/11/20 08:36:00;;;;;;;0.40;0.40;;;;;;;4.70;100.00;100057.78;5010916;28;20498;-81
2022/11/20 08:38:26;;;;;;;0.50;0.50;;;;;;;4.75;100.00;100071.47;5029847;28;20083;-82
2022/11/20 08:43:36;;;;;;;0.40;0.40;;;;;;;4.67;100.00;100056.25;5018684;28;20042;-83
2022/11/20 08:46:01;;;;;;;0.50;0.50;;;;;;;4.69;100.00;100051.63;5028178;28;20080;-81
2022/11/20 08:48:27;;;;;;;0.50;0.50;;;;;;;4.81;100.00;100052.19;5012295;28;20392;-81
2022/11/20 08:50:53;;;;;;;0.40;0.40;;;;;;;4.82;100.00;100041.38;5011341;28;20030;-84
2022/11/20 08:53:18;;;;;;;0.50;0.50;;;;;;;4.90;100.00;100021.97;5029739;28;20053;-81
2022/11/20 08:55:44;;;;;;;0.40;0.40;;;;;;;4.86;100.00;100017.94;5026917;28;20022;-82
2022/11/20 08:58:09;;;;;;;0.40;0.40;;;;;;;4.83;100.00;100012.91;5033709;28;20523;-81
2022/11/20 09:00:35;;;;;;;0.47;0.47;;;;;;;4.73;100.00;100009.53;5049275;28;20033;-81
2022/11/20 09:03:01;;;;;;;0.40;0.40;;;;;;;4.81;100.00;100041.53;5032731;28;20026;-82
2022/11/20 09:05:27;;;;;;;0.50;0.50;;;;;;;4.79;100.00;100027.53;5012042;28;20041;-82
2022/11/20 09:07:56;;;;;;;0.40;0.40;;;;;;;4.98;100.00;100059.31;5000296;28;20030;-83
2022/11/20 09:10:22;;;;;;;0.50;0.50;;;;;;;5.04;100.00;100064.00;5031571;28;21912;-82
2022/11/20 09:12:51;;;;;;;0.40;0.40;;;;;;;5.15;100.00;100068.22;4993639;28;20107;-82
2022/11/20 09:15:17;;;;;;;0.40;0.40;;;;;;;5.28;100.00;100067.81;5012715;28;20029;-84
2022/11/20 09:17:53;;;;;;;0.40;0.40;;;;;;;5.25;100.00;100038.81;5000236;28;20025;-83
2022/11/20 09:20:19;;;;;;;0.50;0.50;;;;;;;5.73;100.00;100053.34;5000089;28;20040;-83
2022/11/20 09:22:45;;;;;;;0.50;0.50;;;;;;;6.33;100.00;100045.16;5026232;28;20079;-84
2022/11/20 09:25:11;;;;;;;0.50;0.50;;;;;;;6.79;100.00;100045.47;5013250;28;20060;-83
2022/11/20 09:27:36;;;;;;;0.50;0.50;;;;;;;6.63;100.00;100034.78;5030518;28;20487;-84
2022/11/20 09:30:03;;;;;;;0.50;0.50;;;;;;;6.78;100.00;100033.13;5021655;28;20036;-82
2022/11/20 09:32:29;;;;;;;0.50;0.50;;;;;;;7.21;100.00;100036.38;5014913;28;20064;-82
2022/11/20 09:34:54;;;;;;;0.50;0.50;;;;;;;8.41;100.00;100048.66;5027501;28;20029;-82
2022/11/20 09:37:20;;;;;;;0.60;0.60;;;;;;;9.09;100.00;100060.28;5032036;28;20026;-83
2022/11/20 09:39:46;;;;;;;0.60;0.60;;;;;;;9.31;100.00;100054.00;5006750;28;20037;-82
2022/11/20 09:42:15;;;;;;;0.50;0.50;;;;;;;10.00;100.00;100045.59;5011023;28;20033;-85
2022/11/20 09:45:27;;;;;;;0.52;0.52;;;;;;;10.46;100.00;100066.78;5032928;28;20053;-82
2022/11/20 09:48:16;;;;;;;0.50;0.50;;;;;;;11.51;100.00;100067.78;5003720;28;20092;-84
2022/11/20 09:51:11;;;;;;;0.60;0.60;;;;;;;12.18;100.00;100074.28;5025099;28;20029;-86
2022/11/20 09:54:00;;;;;;;0.60;0.60;;;;;;;12.40;98.69;100066.88;5011428;28;20050;-83
2022/11/20 09:56:27;;;;;;;0.40;0.40;;;;;;;10.25;100.00;100090.91;5013704;28;20041;-83
2022/11/20 09:58:55;;;;;;;0.40;0.40;;;;;;;8.26;100.00;100060.13;4995499;28;20030;-83
2022/11/20 10:01:24;;;;;;;0.30;0.30;;;;;;;7.48;100.00;100095.78;5029364;28;20045;-82
2022/11/20 10:04:00;;;;;;;0.40;0.40;;;;;;;6.71;100.00;100103.44;4998938;28;20574;-79
2022/11/20 10:06:32;;;;;;;0.40;0.40;;;;;;;6.31;100.00;100111.22;5030252;28;20108;-80
2022/11/20 10:09:06;;;;;;;0.40;0.40;;;;;;;5.89;100.00;100120.06;5009370;28;20053;-80
2022/11/20 10:11:39;;;;;;;0.40;0.40;;;;;;;5.47;100.00;100128.06;5028314;28;20038;-80
2022/11/20 10:14:13;;;;;;;0.40;0.40;;;;;;;5.14;100.00;100127.84;5010193;28;20033;-80
2022/11/20 10:17:11;;;;;;;0.40;0.40;;;;;;;5.02;100.00;100102.44;5011865;28;20037;-81
2022/11/20 10:19:37;;;;;;;0.40;0.40;;;;;;;4.93;100.00;100119.38;5009748;28;20050;-82
2022/11/20 10:22:11;;;;;;;0.45;0.45;;;;;;;4.98;100.00;100128.59;5030296;28;20033;-81
2022/11/20 10:25:08;;;;;;;0.40;0.40;;;;;;;4.95;100.00;100117.38;5024085;28;20120;-82
2022/11/20 10:28:15;;;;;;;0.40;0.40;;;;;;;4.51;100.00;100086.25;5028659;28;20055;-83
2022/11/20 10:30:43;;;;;;;0.40;0.40;;;;;;;4.32;100.00;100089.91;5031901;28;20040;-82
2022/11/20 10:33:21;;;;;;;0.40;0.40;;;;;;;4.08;100.00;100068.38;5014632;28;20040;-82
2022/11/20 10:35:47;;;;;;;0.45;0.45;;;;;;;5.05;100.00;100087.00;5015407;28;20029;-83
2022/11/20 10:38:43;;;;;;;0.70;0.70;;;;;;;6.45;100.00;100080.34;5028799;28;20038;-81
2022/11/20 10:41:24;;;;;;;0.60;0.60;;;;;;;8.05;100.00;100084.84;5030352;28;20053;-83
2022/11/20 10:44:03;;;;;;;0.70;0.70;;;;;;;8.42;100.00;100082.47;5008562;28;20037;-86
2022/11/20 10:46:48;;;;;;;0.60;0.60;;;;;;;10.01;100.00;100094.78;5006059;28;20037;-82
2022/11/20 10:49:18;;;;;;;0.63;0.63;;;;;;;10.99;95.98;100091.44;5006864;28;20030;-81
2022/11/20 10:52:13;;;;;;;0.60;0.60;;;;;;;11.03;96.86;100081.09;5021538;28;20026;-83
2022/11/20 10:55:03;;;;;;;0.60;0.60;;;;;;;10.71;99.44;100083.31;5029511;28;20029;-83
2022/11/20 10:57:54;;;;;;;0.60;0.60;;;;;;;10.10;100.00;100081.03;5032769;28;20034;-84
2022/11/20 11:00:20;;;;;;;0.60;0.60;;;;;;;11.32;98.85;100093.53;5014104;28;20072;-82
2022/11/20 11:02:49;;;;;;;0.40;0.40;;;;;;;11.70;97.62;100087.75;5025928;28;20456;-82
2022/11/20 11:05:20;;;;;;;0.47;0.47;;;;;;;10.09;100.00;100103.53;5030156;28;20108;-82
2022/11/20 11:07:48;;;;;;;0.50;0.50;;;;;;;8.89;100.00;100108.22;5019597;28;20031;-82
2022/11/20 11:10:23;;;;;;;0.52;0.52;;;;;;;8.21;100.00;100099.97;5022480;28;20072;-82
2022/11/20 11:12:48;;;;;;;0.40;0.40;;;;;;;7.90;100.00;100118.72;5028364;28;20032;-82
2022/11/20 11:15:25;;;;;;;0.40;0.40;;;;;;;7.91;100.00;100113.19;5009097;28;20033;-82
2022/11/20 11:17:51;;;;;;;0.50;0.50;;;;;;;8.41;100.00;100100.38;5006053;28;20049;-86
2022/11/20 11:20:19;;;;;;;0.40;0.40;;;;;;;9.12;100.00;100116.25;5006386;28;20065;-83
2022/11/20 11:22:55;;;;;;;0.30;0.30;;;;;;;8.42;100.00;100093.19;5014321;28;20563;-83
2022/11/20 11:25:28;;;;;;;0.40;0.40;;;;;;;7.81;100.00;100117.91;4989821;28;20041;-83
2022/11/20 11:27:56;;;;;;;0.50;0.50;;;;;;;7.97;100.00;100102.81;5038873;28;20022;-84
2022/11/20 11:30:22;;;;;;;0.40;0.40;;;;;;;7.75;100.00;100107.88;4990478;28;20111;-84
2022/11/20 11:32:48;;;;;;;0.35;0.35;;;;;;;7.49;100.00;100108.19;4992781;28;20048;-82
2022/11/20 11:35:25;;;;;;;0.43;0.43;;;;;;;7.45;100.00;100114.84;5025801;28;20022;-85
2022/11/20 11:37:54;;;;;;;0.40;0.40;;;;;;;7.26;100.00;100116.06;5046321;28;20079;-83
2022/11/20 11:40:20;;;;;;;0.50;0.50;;;;;;;7.11;100.00;100123.94;5016856;28;20039;-83
2022/11/20 11:42:54;;;;;;;0.40;0.40;;;;;;;7.08;100.00;100134.16;5025536;28;20022;-86
2022/11/20 11:45:21;;;;;;;0.40;0.40;;;;;;;7.01;100.00;100140.19;5011359;28;20030;-85